Orbital elements of FENGYUN 1C DEB
| Launched | 9 May 1999 |
| Flight ended | – |
| Launch site | Taiyuan Space Center, PRC |
| Owner | People's Republic of China |
| NORAD ID | 33630 |
| Date fetched |
Epoch osculation |
Inc. [°] |
Ecc. | RA asc node [hr] |
Arg Peri. [°] |
Mean anom [°] |
Mean motion [rev/day] |
Abs. mag |
| Date fetched |
Epoch osculation |
Inc. [°] |
Ecc. | RA asc node [hr] |
Arg Peri. [°] |
Mean anom [°] |
Mean motion [rev/day] |
Abs. mag |
| 2026 May 03 17:57 | 2026 Apr 28 13:48:38 | 98.6187 | 0.01345 | 15.0505 | 34.4520 | 326.5283 | 14.17983 | – |
| 2026 May 02 17:57 | 2026 Apr 28 13:48:38 | 98.6187 | 0.01345 | 15.0505 | 34.4520 | 326.5283 | 14.17983 | – |
| 2026 May 01 17:56 | 2026 Apr 28 13:48:38 | 98.6187 | 0.01345 | 15.0505 | 34.4520 | 326.5283 | 14.17983 | – |
| 2026 Apr 30 17:56 | 2026 Apr 28 13:48:38 | 98.6187 | 0.01345 | 15.0505 | 34.4520 | 326.5283 | 14.17983 | – |
| 2026 Apr 29 17:57 | 2026 Apr 22 13:51:51 | 98.6180 | 0.01348 | 14.6621 | 51.6572 | 326.5283 | 14.17983 | – |
| 2026 Apr 28 17:56 | 2026 Apr 22 13:51:51 | 98.6180 | 0.01348 | 14.6621 | 51.6572 | 326.5283 | 14.17983 | – |
| 2026 Apr 27 17:58 | 2026 Apr 22 13:51:51 | 98.6180 | 0.01348 | 14.6621 | 51.6572 | 326.5283 | 14.17983 | – |
| 2026 Apr 26 17:58 | 2026 Apr 22 13:51:51 | 98.6180 | 0.01348 | 14.6621 | 51.6572 | 326.5283 | 14.17983 | – |
| 2026 Apr 25 17:58 | 2026 Apr 22 13:51:51 | 98.6180 | 0.01348 | 14.6621 | 51.6572 | 326.5283 | 14.17983 | – |
| 2026 Apr 24 17:59 | 2026 Apr 22 13:51:51 | 98.6180 | 0.01348 | 14.6621 | 51.6572 | 326.5283 | 14.17983 | – |
| 2026 Apr 23 17:57 | 2026 Apr 18 13:20:06 | 98.6168 | 0.01350 | 14.4017 | 63.1811 | 326.5283 | 14.17983 | – |
| 2026 Apr 22 17:57 | 2026 Apr 18 13:20:06 | 98.6168 | 0.01350 | 14.4017 | 63.1811 | 326.5283 | 14.17983 | – |
| 2026 Apr 21 17:57 | 2026 Apr 18 13:20:06 | 98.6168 | 0.01350 | 14.4017 | 63.1811 | 326.5283 | 14.17983 | – |
| 2026 Apr 20 17:57 | 2026 Apr 18 13:20:06 | 98.6168 | 0.01350 | 14.4017 | 63.1811 | 326.5283 | 14.17983 | – |
| 2026 Apr 19 17:58 | 2026 Apr 18 13:20:06 | 98.6168 | 0.01350 | 14.4017 | 63.1811 | 326.5283 | 14.17983 | – |
| 2026 Apr 18 17:56 | 2026 Apr 13 01:14:29 | 98.6168 | 0.01353 | 14.0455 | 78.9256 | 326.5283 | 14.17983 | – |
| 2026 Apr 16 17:57 | 2026 Apr 13 01:14:29 | 98.6168 | 0.01353 | 14.0455 | 78.9256 | 326.5283 | 14.17983 | – |
| 2026 Apr 14 17:57 | 2026 Apr 13 01:14:29 | 98.6168 | 0.01353 | 14.0455 | 78.9256 | 326.5283 | 14.17983 | – |
| 2026 Apr 13 17:57 | 2026 Apr 13 01:14:29 | 98.6168 | 0.01353 | 14.0455 | 78.9256 | 326.5283 | 14.17983 | – |
| 2026 Apr 12 17:57 | 2026 Apr 05 13:43:40 | 98.6157 | 0.01354 | 13.5614 | 100.2911 | 326.5283 | 14.17983 | – |
| 2026 Apr 11 17:57 | 2026 Apr 05 13:43:40 | 98.6157 | 0.01354 | 13.5614 | 100.2911 | 326.5283 | 14.17983 | – |
| 2026 Apr 10 17:58 | 2026 Apr 05 13:43:40 | 98.6157 | 0.01354 | 13.5614 | 100.2911 | 326.5283 | 14.17983 | – |
| 2026 Apr 09 18:01 | 2026 Apr 05 13:43:40 | 98.6157 | 0.01354 | 13.5614 | 100.2911 | 326.5283 | 14.17983 | – |
| 2026 Apr 08 17:57 | 2026 Apr 05 13:43:40 | 98.6157 | 0.01354 | 13.5614 | 100.2911 | 326.5283 | 14.17983 | – |
| 2026 Apr 07 17:57 | 2026 Apr 02 01:03:03 | 98.6155 | 0.01355 | 13.3330 | 110.3562 | 326.5283 | 14.17983 | – |
| 2026 Apr 06 17:57 | 2026 Apr 02 01:03:03 | 98.6155 | 0.01355 | 13.3330 | 110.3562 | 326.5283 | 14.17983 | – |